Time;durP1;ratioP1;P1;durP2;ratioP2;P2;SDS_P1;SDS_P2;PMS_P1;PMS_P2;Temp;Humidity;BMP_temperature;BMP_pressure;BME280_temperature;BME280_humidity;BME280_pressure;Samples;Min_cycle;Max_cycle;Signal;HPM_P1;HPM_P2
2021/11/03 00:00:17;;;;;;;15.18;11.48;;;7.70;94.20;;;;;;2074942;28;20042;-90
2021/11/03 00:01:20;;;;;;;14.38;11.27;;;7.70;94.30;;;;;;2089555;28;20517;-91
2021/11/03 00:02:21;;;;;;;14.00;11.32;;;7.70;94.30;;;;;;2078572;28;20030;-91
2021/11/03 00:03:22;;;;;;;14.43;11.30;;;7.70;94.30;;;;;;2058890;28;21084;-91
2021/11/03 00:04:23;;;;;;;15.13;11.63;;;7.70;94.30;;;;;;2060043;28;20038;-91
2021/11/03 00:05:23;;;;;;;14.82;11.63;;;7.60;94.30;;;;;;2066577;28;20045;-90
2021/11/03 00:06:24;;;;;;;14.30;11.45;;;7.60;94.30;;;;;;2074728;28;20543;-90
2021/11/03 00:07:29;;;;;;;13.23;10.68;;;7.60;94.40;;;;;;2067102;28;20042;-90
2021/11/03 00:08:30;;;;;;;13.65;10.73;;;7.60;94.40;;;;;;2075593;28;20404;-91
2021/11/03 00:09:31;;;;;;;15.32;11.40;;;7.60;94.40;;;;;;2085926;28;20030;-91
2021/11/03 00:10:33;;;;;;;14.82;11.25;;;7.60;94.40;;;;;;2091900;28;20128;-90
2021/11/03 00:11:36;;;;;;;13.38;11.10;;;7.60;94.40;;;;;;2082912;28;20512;-91
2021/11/03 00:12:37;;;;;;;12.90;10.15;;;7.50;94.40;;;;;;2074767;28;20504;-91
2021/11/03 00:13:38;;;;;;;12.38;9.82;;;7.50;94.40;;;;;;2081899;28;20092;-91
2021/11/03 00:14:39;;;;;;;15.18;10.82;;;7.50;94.40;;;;;;2084399;28;20071;-90
2021/11/03 00:15:40;;;;;;;14.50;11.02;;;7.50;94.40;;;;;;2075045;28;20502;-90
2021/11/03 00:16:40;;;;;;;13.43;10.48;;;7.50;94.40;;;;;;2076997;28;20061;-90
2021/11/03 00:17:41;;;;;;;13.23;10.50;;;7.50;94.40;;;;;;2080124;28;20045;-90
2021/11/03 00:18:42;;;;;;;13.23;10.05;;;7.50;94.40;;;;;;2078242;28;20130;-90
2021/11/03 00:19:43;;;;;;;13.82;10.32;;;7.50;94.40;;;;;;2074369;28;20038;-91
2021/11/03 00:20:44;;;;;;;14.70;10.80;;;7.60;94.70;;;;;;2091126;28;20069;-91
2021/11/03 00:21:44;;;;;;;14.52;11.05;;;7.60;94.70;;;;;;2083777;28;20020;-90
2021/11/03 00:22:45;;;;;;;14.90;11.00;;;7.60;94.40;;;;;;2076538;28;20018;-85
2021/11/03 00:23:46;;;;;;;15.65;10.88;;;7.60;94.40;;;;;;2080607;28;20065;-84
2021/11/03 00:24:47;;;;;;;15.05;11.05;;;7.60;94.40;;;;;;2083961;28;20076;-87
2021/11/03 00:25:47;;;;;;;15.95;11.27;;;7.60;94.30;;;;;;2084782;28;20042;-83
2021/11/03 00:26:48;;;;;;;15.32;10.77;;;7.60;94.30;;;;;;2069828;28;20053;-85
2021/11/03 00:27:49;;;;;;;15.38;10.68;;;7.60;94.30;;;;;;2063202;28;20083;-91
2021/11/03 00:28:50;;;;;;;14.23;11.02;;;7.60;94.30;;;;;;2059028;28;20047;-91
2021/11/03 00:29:51;;;;;;;13.70;10.57;;;7.60;94.30;;;;;;2065052;28;20516;-91
2021/11/03 00:30:54;;;;;;;14.23;11.00;;;7.60;94.30;;;;;;2058888;28;20038;-92
2021/11/03 00:31:55;;;;;;;14.65;11.70;;;7.60;94.40;;;;;;2060742;28;20041;-91
2021/11/03 00:32:56;;;;;;;16.48;12.00;;;7.50;94.30;;;;;;2056647;28;20648;-91
2021/11/03 00:33:57;;;;;;;15.77;11.55;;;7.60;94.40;;;;;;2050497;28;20040;-91
2021/11/03 00:34:58;;;;;;;15.48;11.82;;;7.60;94.30;;;;;;2079166;28;20033;-91
2021/11/03 00:36:00;;;;;;;13.98;11.15;;;7.60;94.30;;;;;;2081594;28;20030;-91
2021/11/03 00:37:00;;;;;;;14.45;11.32;;;7.60;94.30;;;;;;2058682;28;20035;-91
2021/11/03 00:38:01;;;;;;;14.52;11.40;;;7.50;94.30;;;;;;2050414;29;20065;-91
2021/11/03 00:39:02;;;;;;;15.10;11.98;;;7.50;94.30;;;;;;2058588;28;20448;-91
2021/11/03 00:40:05;;;;;;;15.13;11.43;;;7.50;94.30;;;;;;2058767;28;20086;-92
2021/11/03 00:41:06;;;;;;;15.73;11.40;;;7.50;94.40;;;;;;2059281;28;20149;-90
2021/11/03 00:42:07;;;;;;;16.20;10.93;;;7.50;94.40;;;;;;2058707;28;20053;-91
2021/11/03 00:43:08;;;;;;;15.10;11.07;;;7.50;94.40;;;;;;2074550;28;20463;-90
2021/11/03 00:44:09;;;;;;;13.60;10.88;;;7.40;94.40;;;;;;2081282;28;20029;-91
2021/11/03 00:45:10;;;;;;;14.95;11.55;;;7.40;94.40;;;;;;2074683;28;20400;-91
2021/11/03 00:46:10;;;;;;;14.75;11.43;;;7.40;94.40;;;;;;2082581;28;20030;-90
2021/11/03 00:47:11;;;;;;;14.40;11.23;;;7.40;94.40;;;;;;2075903;28;20044;-91
2021/11/03 00:48:12;;;;;;;14.38;11.32;;;7.40;94.40;;;;;;2074568;28;20038;-90
2021/11/03 00:49:13;;;;;;;13.50;11.15;;;7.30;94.40;;;;;;2053421;28;20523;-90
2021/11/03 00:50:15;;;;;;;14.27;10.90;;;7.30;94.40;;;;;;2060791;28;20038;-90
2021/11/03 00:51:16;;;;;;;13.93;10.75;;;7.30;94.40;;;;;;2069225;28;20042;-90
2021/11/03 00:52:17;;;;;;;13.80;10.88;;;7.30;94.40;;;;;;2082662;28;20069;-91
2021/11/03 00:53:18;;;;;;;14.15;11.25;;;7.20;94.40;;;;;;2083613;28;20051;-91
2021/11/03 00:54:19;;;;;;;14.00;11.02;;;7.20;94.40;;;;;;2082921;28;20107;-90
2021/11/03 00:55:20;;;;;;;13.95;10.73;;;7.20;94.50;;;;;;2083476;28;20038;-91
2021/11/03 00:56:20;;;;;;;14.48;11.32;;;7.20;94.50;;;;;;2087079;28;20026;-90
2021/11/03 00:57:21;;;;;;;13.73;10.73;;;7.10;94.40;;;;;;2080175;28;20531;-90
2021/11/03 00:58:22;;;;;;;13.80;11.30;;;7.10;94.50;;;;;;2066762;28;20058;-91
2021/11/03 00:59:22;;;;;;;13.50;10.65;;;7.10;94.50;;;;;;2066496;28;20062;-90
2021/11/03 01:00:23;;;;;;;15.30;11.48;;;7.10;94.50;;;;;;2066414;28;20106;-91
2021/11/03 01:01:24;;;;;;;15.15;10.98;;;7.10;94.50;;;;;;2068792;28;20027;-90
2021/11/03 01:02:25;;;;;;;14.43;11.30;;;7.10;94.60;;;;;;2077898;28;20130;-92
2021/11/03 01:03:26;;;;;;;14.00;10.90;;;7.10;94.60;;;;;;2069926;28;20034;-90
2021/11/03 01:04:27;;;;;;;12.90;10.52;;;7.00;94.60;;;;;;2080828;28;20076;-90
2021/11/03 01:05:27;;;;;;;14.45;11.18;;;7.00;94.60;;;;;;2075731;28;20019;-90
2021/11/03 01:06:28;;;;;;;14.98;10.85;;;7.00;94.60;;;;;;2069881;28;20038;-90
2021/11/03 01:07:29;;;;;;;15.23;10.50;;;6.90;94.60;;;;;;2077949;28;20029;-90
2021/11/03 01:08:30;;;;;;;13.95;10.77;;;7.00;94.60;;;;;;2082587;28;20068;-89
2021/11/03 01:09:30;;;;;;;13.95;10.38;;;7.00;94.60;;;;;;2076549;28;20042;-90
2021/11/03 01:10:33;;;;;;;15.52;10.93;;;6.90;94.60;;;;;;2077594;28;20038;-90
2021/11/03 01:11:33;;;;;;;14.82;11.18;;;6.90;94.60;;;;;;2074674;28;20060;-90
2021/11/03 01:12:34;;;;;;;13.95;10.88;;;6.90;94.60;;;;;;2074327;28;20076;-91
2021/11/03 01:13:35;;;;;;;13.00;10.82;;;6.90;94.60;;;;;;2074715;28;20050;-89
2021/11/03 01:14:37;;;;;;;13.93;10.45;;;6.90;94.60;;;;;;2075322;28;20034;-91
2021/11/03 01:15:39;;;;;;;15.00;11.25;;;6.90;94.90;;;;;;2074923;28;20519;-90
2021/11/03 01:16:40;;;;;;;13.88;10.65;;;6.80;94.60;;;;;;2074664;28;20568;-90
2021/11/03 01:17:42;;;;;;;13.93;10.38;;;6.80;94.60;;;;;;2067319;28;20039;-90
2021/11/03 01:18:43;;;;;;;13.98;10.48;;;6.80;94.60;;;;;;2079327;28;20116;-90
2021/11/03 01:19:44;;;;;;;13.95;10.95;;;6.80;94.60;;;;;;2077098;28;20072;-91
2021/11/03 01:20:45;;;;;;;13.35;10.60;;;6.80;94.60;;;;;;2082613;28;20107;-90
2021/11/03 01:21:46;;;;;;;13.02;10.13;;;6.80;94.60;;;;;;2083618;28;20483;-91
2021/11/03 01:22:46;;;;;;;14.45;10.85;;;6.80;94.60;;;;;;2083421;28;20038;-91
2021/11/03 01:23:47;;;;;;;13.65;10.18;;;6.80;94.60;;;;;;2089264;28;20044;-91
2021/11/03 01:24:48;;;;;;;13.80;10.05;;;6.80;94.60;;;;;;2090679;28;20124;-91
2021/11/03 01:25:50;;;;;;;25.27;11.07;;;6.80;94.60;;;;;;2065964;28;20123;-89
2021/11/03 01:26:50;;;;;;;18.38;10.50;;;6.80;94.60;;;;;;2066780;28;20058;-90
2021/11/03 01:27:52;;;;;;;16.02;10.60;;;6.80;94.60;;;;;;2080085;28;20097;-90
2021/11/03 01:28:52;;;;;;;21.17;10.38;;;6.80;94.60;;;;;;2074352;28;20411;-90
2021/11/03 01:29:53;;;;;;;19.10;10.48;;;6.80;94.60;;;;;;2067193;28;20038;-90
2021/11/03 01:30:55;;;;;;;18.98;9.82;;;6.80;94.60;;;;;;2054052;28;20038;-92
2021/11/03 01:31:55;;;;;;;29.20;10.40;;;6.80;94.80;;;;;;2058156;28;20288;-91
2021/11/03 01:32:56;;;;;;;32.67;10.20;;;6.80;94.50;;;;;;2066121;28;20046;-91
2021/11/03 01:33:59;;;;;;;26.17;9.40;;;6.80;94.50;;;;;;2082297;28;20145;-91
2021/11/03 01:35:00;;;;;;;22.80;9.40;;;6.80;94.50;;;;;;2082902;28;20034;-91
2021/11/03 01:36:00;;;;;;;22.98;9.55;;;6.80;94.40;;;;;;2072927;28;20040;-92
2021/11/03 01:37:01;;;;;;;20.98;8.77;;;6.80;94.40;;;;;;2057799;28;20060;-92
2021/11/03 01:38:02;;;;;;;16.63;9.50;;;6.80;94.40;;;;;;2057349;28;20043;-91
2021/11/03 01:39:06;;;;;;;19.90;8.90;;;6.80;94.40;;;;;;2066063;28;20053;-92
2021/11/03 01:40:11;;;;;;;14.25;8.98;;;6.80;94.40;;;;;;2082360;28;20124;-91
2021/11/03 01:41:12;;;;;;;17.05;9.20;;;6.80;94.40;;;;;;2087199;28;20036;-91
2021/11/03 01:42:14;;;;;;;21.02;8.40;;;6.80;94.50;;;;;;2091099;28;20040;-92
2021/11/03 01:43:33;;;;;;;16.65;8.73;;;6.70;94.40;;;;;;2087576;28;20025;-92
2021/11/03 01:44:35;;;;;;;18.05;8.75;;;6.70;94.50;;;;;;2074091;28;20066;-91
2021/11/03 01:45:36;;;;;;;18.95;8.60;;;6.70;94.50;;;;;;2074623;28;20523;-92
2021/11/03 01:47:15;;;;;;;21.45;8.85;;;6.70;94.50;;;;;;2084290;28;20053;-91
2021/11/03 01:48:16;;;;;;;13.38;8.60;;;6.70;94.40;;;;;;2083114;28;20440;-92
2021/11/03 01:49:18;;;;;;;11.70;8.82;;;6.70;94.40;;;;;;2073950;28;20085;-92
2021/11/03 01:50:22;;;;;;;12.20;8.65;;;6.70;94.40;;;;;;2074898;28;20033;-92
2021/11/03 01:51:31;;;;;;;11.82;8.45;;;6.60;94.40;;;;;;2087395;28;20488;-91
2021/11/03 01:52:32;;;;;;;12.18;8.10;;;6.60;94.40;;;;;;2074393;28;20026;-92
2021/11/03 01:53:34;;;;;;;11.00;8.77;;;6.60;94.40;;;;;;2075986;28;20045;-91
2021/11/03 01:55:04;;;;;;;11.23;8.15;;;6.60;94.50;;;;;;2089134;28;20112;-90
2021/11/03 01:56:07;;;;;;;11.60;7.97;;;6.60;94.50;;;;;;2073932;28;20037;-90
2021/11/03 01:57:13;;;;;;;14.52;8.40;;;6.50;94.50;;;;;;2082973;28;20026;-91
2021/11/03 01:58:17;;;;;;;11.20;7.95;;;6.50;94.50;;;;;;2073504;28;20128;-91
2021/11/03 01:59:26;;;;;;;9.93;7.65;;;6.50;94.50;;;;;;2072492;28;20038;-90
2021/11/03 02:00:30;;;;;;;11.52;7.68;;;6.50;94.50;;;;;;2079555;28;20037;-90
2021/11/03 02:01:31;;;;;;;9.48;7.40;;;6.50;94.50;;;;;;2080534;28;20030;-91
2021/11/03 02:02:33;;;;;;;9.95;7.70;;;6.50;94.50;;;;;;2089463;28;20029;-91
2021/11/03 02:03:34;;;;;;;10.52;8.18;;;6.40;94.50;;;;;;2083383;28;20016;-86
2021/11/03 02:04:37;;;;;;;10.43;8.57;;;6.40;94.60;;;;;;2090488;28;20028;-82
2021/11/03 02:05:41;;;;;;;10.23;8.05;;;6.40;94.60;;;;;;2097454;28;20025;-87
2021/11/03 02:06:42;;;;;;;11.48;9.02;;;6.40;94.60;;;;;;2085015;28;20049;-81
2021/11/03 02:07:44;;;;;;;9.90;7.95;;;6.30;94.50;;;;;;2084008;28;20097;-89
2021/11/03 02:08:46;;;;;;;10.48;8.57;;;6.40;94.60;;;;;;2083815;28;20050;-84
2021/11/03 02:09:47;;;;;;;10.65;8.63;;;6.30;94.60;;;;;;2076355;28;20053;-90
2021/11/03 02:10:48;;;;;;;10.07;7.95;;;6.30;94.60;;;;;;2071220;28;20066;-91
2021/11/03 02:11:49;;;;;;;11.52;8.90;;;6.30;94.60;;;;;;2078010;28;20034;-91
2021/11/03 02:12:49;;;;;;;9.95;8.13;;;6.30;94.60;;;;;;2065956;28;20125;-92
2021/11/03 02:13:51;;;;;;;11.38;8.70;;;6.30;94.60;;;;;;2065906;28;20485;-91
2021/11/03 02:14:53;;;;;;;10.00;7.90;;;6.30;94.60;;;;;;2082131;28;20029;-91
2021/11/03 02:15:54;;;;;;;11.43;8.88;;;6.30;94.60;;;;;;2089713;28;20082;-91
2021/11/03 02:16:55;;;;;;;12.60;8.60;;;6.30;94.60;;;;;;2083660;28;20057;-89
2021/11/03 02:17:56;;;;;;;10.57;8.50;;;6.30;94.60;;;;;;2082590;28;20183;-91
2021/11/03 02:18:57;;;;;;;12.18;9.00;;;6.30;94.60;;;;;;2090747;28;20045;-90
2021/11/03 02:20:00;;;;;;;11.20;8.60;;;6.30;94.50;;;;;;2071601;28;20044;-90
2021/11/03 02:21:03;;;;;;;12.15;8.77;;;6.30;94.50;;;;;;2068757;28;20026;-90
2021/11/03 02:22:18;;;;;;;13.18;9.73;;;6.30;94.50;;;;;;2085645;28;20037;-90
2021/11/03 02:23:40;;;;;;;12.55;9.15;;;6.30;94.50;;;;;;2082294;28;20045;-90
2021/11/03 02:24:53;;;;;;;10.98;8.13;;;6.30;94.50;;;;;;2082304;28;20133;-91
2021/11/03 02:26:11;;;;;;;14.07;8.98;;;6.30;94.50;;;;;;2079462;28;20040;-91
2021/11/03 02:27:13;;;;;;;14.15;8.60;;;6.30;94.50;;;;;;2073083;28;20508;-91
2021/11/03 02:28:16;;;;;;;17.08;8.52;;;6.30;94.50;;;;;;2065377;28;20079;-91
2021/11/03 02:29:22;;;;;;;14.15;8.20;;;6.30;94.50;;;;;;2068968;28;20042;-90
2021/11/03 02:30:25;;;;;;;10.52;7.63;;;6.40;94.50;;;;;;2078177;28;20025;-91
2021/11/03 02:31:41;;;;;;;15.27;7.47;;;6.30;94.40;;;;;;2082063;28;20048;-91
2021/11/03 02:32:43;;;;;;;15.30;7.03;;;6.40;94.50;;;;;;2076287;28;20519;-90
2021/11/03 02:33:43;;;;;;;23.85;7.47;;;6.40;94.40;;;;;;2082492;28;20096;-90
2021/11/03 02:34:45;;;;;;;13.43;7.22;;;6.30;94.30;;;;;;2073877;28;20488;-91
2021/11/03 02:35:54;;;;;;;15.77;7.15;;;6.40;94.30;;;;;;2073892;28;20039;-91
2021/11/03 02:37:00;;;;;;;14.80;6.50;;;6.40;94.30;;;;;;2074839;28;20065;-92
2021/11/03 02:38:03;;;;;;;16.88;6.30;;;6.30;94.30;;;;;;2077579;28;20037;-92
2021/11/03 02:39:07;;;;;;;9.98;6.55;;;6.40;94.30;;;;;;2073732;28;20053;-92
2021/11/03 02:40:37;;;;;;;12.82;6.70;;;6.40;94.30;;;;;;2082499;28;20466;-92
2021/11/03 02:41:38;;;;;;;11.85;6.03;;;6.30;94.20;;;;;;2080949;28;20124;-92
2021/11/03 02:42:46;;;;;;;14.75;5.82;;;6.30;94.50;;;;;;2057379;28;20354;-92
2021/11/03 02:43:59;;;;;;;10.68;5.93;;;6.20;94.30;;;;;;2068033;28;20042;-92
2021/11/03 02:45:04;;;;;;;16.45;5.97;;;6.30;94.30;;;;;;2082307;28;20140;-92
2021/11/03 02:46:05;;;;;;;9.07;6.00;;;6.30;94.30;;;;;;2082103;28;20117;-92
2021/11/03 02:47:06;;;;;;;9.43;6.32;;;6.20;94.30;;;;;;2085199;28;20461;-92
2021/11/03 02:48:07;;;;;;;9.90;6.25;;;6.20;94.30;;;;;;2073836;28;20112;-93
2021/11/03 02:49:08;;;;;;;19.50;6.50;;;6.20;94.40;;;;;;2067083;28;20089;-92
2021/11/03 02:50:13;;;;;;;10.77;6.10;;;6.20;94.40;;;;;;2064109;28;20034;-92
2021/11/03 02:51:16;;;;;;;15.00;6.22;;;6.20;94.30;;;;;;2060386;28;20034;-93
2021/11/03 02:52:25;;;;;;;32.67;7.28;;;6.20;94.30;;;;;;2068656;28;20088;-92
2021/11/03 02:53:27;;;;;;;17.60;6.68;;;6.20;94.30;;;;;;2082862;28;20049;-92
2021/11/03 02:54:28;;;;;;;16.25;6.35;;;6.20;94.30;;;;;;2077213;28;20030;-92
2021/11/03 02:55:29;;;;;;;19.08;7.00;;;6.20;94.30;;;;;;2073627;28;20632;-92
2021/11/03 02:56:38;;;;;;;13.55;7.18;;;6.10;94.30;;;;;;2057355;28;20377;-92
2021/11/03 02:57:39;;;;;;;12.35;6.88;;;6.10;94.30;;;;;;2070780;28;20030;-92
2021/11/03 02:58:40;;;;;;;14.88;7.18;;;6.10;94.40;;;;;;2065354;28;20545;-91
2021/11/03 02:59:40;;;;;;;20.80;7.40;;;6.10;94.40;;;;;;2073417;28;20042;-92
2021/11/03 03:00:42;;;;;;;11.65;7.22;;;6.10;94.40;;;;;;2065409;28;20045;-92
2021/11/03 03:01:46;;;;;;;20.15;7.05;;;6.10;94.40;;;;;;2066479;28;20035;-93
2021/11/03 03:02:47;;;;;;;13.25;7.28;;;6.20;94.50;;;;;;2081028;28;20088;-93
2021/11/03 03:03:48;;;;;;;13.52;7.47;;;6.20;94.50;;;;;;2081690;28;20060;-92
2021/11/03 03:04:52;;;;;;;15.00;7.03;;;6.20;94.50;;;;;;2060906;28;20034;-91
2021/11/03 03:06:04;;;;;;;15.68;6.88;;;6.20;94.50;;;;;;2066084;28;20034;-92
2021/11/03 03:07:07;;;;;;;14.02;7.22;;;6.20;94.50;;;;;;2069738;28;20065;-92
2021/11/03 03:08:08;;;;;;;13.02;7.38;;;6.20;94.40;;;;;;2072419;28;20026;-91
2021/11/03 03:09:10;;;;;;;17.35;8.25;;;6.20;94.50;;;;;;2073533;28;20132;-92
2021/11/03 03:10:11;;;;;;;17.27;8.15;;;6.20;94.40;;;;;;2073926;28;20449;-92
2021/11/03 03:11:11;;;;;;;12.18;6.82;;;6.30;94.40;;;;;;2082320;28;20044;-92
2021/11/03 03:12:15;;;;;;;15.63;7.82;;;6.30;94.40;;;;;;2077036;28;20554;-92
2021/11/03 03:13:16;;;;;;;9.65;7.32;;;6.30;94.40;;;;;;2081747;28;20543;-92
2021/11/03 03:14:19;;;;;;;10.70;7.00;;;6.30;94.40;;;;;;2073481;28;20041;-92
2021/11/03 03:15:20;;;;;;;8.25;7.10;;;6.30;94.40;;;;;;2070255;28;20045;-91
2021/11/03 03:16:21;;;;;;;13.27;7.65;;;6.30;94.40;;;;;;2056646;28;20027;-92
2021/11/03 03:17:22;;;;;;;12.75;7.43;;;6.40;94.40;;;;;;2061099;28;20053;-92
2021/11/03 03:18:23;;;;;;;11.80;7.32;;;6.30;94.30;;;;;;2081262;28;20563;-92
2021/11/03 03:19:24;;;;;;;9.82;7.25;;;6.30;94.30;;;;;;2089594;28;20087;-92
2021/11/03 03:20:25;;;;;;;13.27;7.07;;;6.40;94.30;;;;;;2081536;28;20048;-92
2021/11/03 03:21:26;;;;;;;15.63;7.32;;;6.30;94.30;;;;;;2081855;28;20173;-94
2021/11/03 03:22:26;;;;;;;15.52;7.38;;;6.30;94.20;;;;;;2086855;28;20080;-92
2021/11/03 03:23:27;;;;;;;28.90;7.78;;;6.30;94.20;;;;;;2065245;28;20054;-92
2021/11/03 03:24:29;;;;;;;25.25;8.00;;;6.30;94.10;;;;;;2060709;28;20042;-92
2021/11/03 03:25:31;;;;;;;14.25;7.20;;;6.20;94.10;;;;;;2073671;28;20042;-92
2021/11/03 03:26:32;;;;;;;21.60;7.00;;;6.20;94.10;;;;;;2082236;28;20087;-92
2021/11/03 03:27:32;;;;;;;24.60;7.50;;;6.20;94.20;;;;;;2083390;28;20033;-92
2021/11/03 03:28:33;;;;;;;14.32;6.75;;;6.10;94.20;;;;;;2072271;28;20041;-93
2021/11/03 03:29:34;;;;;;;12.05;7.45;;;6.10;94.20;;;;;;2065685;28;20070;-92
2021/11/03 03:30:35;;;;;;;15.05;7.45;;;6.00;94.30;;;;;;2073416;28;20073;-91
2021/11/03 03:31:37;;;;;;;12.52;7.22;;;6.00;94.30;;;;;;2073372;28;20046;-91
2021/11/03 03:32:38;;;;;;;13.38;7.40;;;6.00;94.40;;;;;;2072983;28;20041;-92
2021/11/03 03:33:39;;;;;;;11.88;6.93;;;6.00;94.40;;;;;;2073527;28;20057;-92
2021/11/03 03:34:39;;;;;;;14.80;7.47;;;6.00;94.40;;;;;;2068166;28;20049;-92
2021/11/03 03:35:40;;;;;;;14.00;6.75;;;6.10;94.50;;;;;;2057283;28;20066;-93
2021/11/03 03:36:42;;;;;;;17.58;7.50;;;6.00;94.40;;;;;;2058936;28;20050;-92
2021/11/03 03:37:42;;;;;;;10.35;7.20;;;6.10;94.40;;;;;;2063503;28;20065;-91
2021/11/03 03:38:43;;;;;;;13.85;7.05;;;6.10;94.40;;;;;;2065341;28;20539;-91
2021/11/03 03:39:46;;;;;;;10.68;6.97;;;6.10;94.40;;;;;;2074838;28;20066;-92
2021/11/03 03:40:46;;;;;;;10.70;6.90;;;6.10;94.40;;;;;;2092171;28;20050;-92
2021/11/03 03:41:54;;;;;;;12.10;6.38;;;6.10;94.40;;;;;;2086173;28;20048;-91
2021/11/03 03:42:55;;;;;;;9.63;6.65;;;6.10;94.40;;;;;;2087051;28;20052;-91
2021/11/03 03:43:56;;;;;;;17.80;7.05;;;6.10;94.40;;;;;;2082327;28;20146;-91
2021/11/03 03:44:56;;;;;;;15.27;6.95;;;6.10;94.40;;;;;;2079567;28;20046;-82
2021/11/03 03:45:57;;;;;;;8.90;6.90;;;6.10;94.40;;;;;;2076951;28;20022;-90
2021/11/03 03:46:58;;;;;;;10.98;7.00;;;6.10;94.40;;;;;;2091967;28;20034;-82
2021/11/03 03:47:59;;;;;;;16.70;6.93;;;6.10;94.40;;;;;;2089565;28;20028;-87
2021/11/03 03:49:00;;;;;;;13.73;7.00;;;6.10;94.40;;;;;;2083673;28;20042;-84
2021/11/03 03:50:01;;;;;;;13.98;7.40;;;6.10;94.30;;;;;;2080613;28;20014;-86
2021/11/03 03:51:02;;;;;;;10.40;7.15;;;6.10;94.60;;;;;;2085190;28;20022;-90
2021/11/03 03:52:04;;;;;;;10.23;6.57;;;6.10;94.30;;;;;;2083867;28;20112;-90
2021/11/03 03:53:05;;;;;;;12.48;7.60;;;6.10;94.40;;;;;;2078652;28;20029;-91
2021/11/03 03:54:06;;;;;;;9.10;6.90;;;6.10;94.30;;;;;;2081961;28;20044;-90
2021/11/03 03:55:07;;;;;;;10.63;7.40;;;6.20;94.40;;;;;;2079681;28;20053;-91
2021/11/03 03:56:09;;;;;;;13.23;7.47;;;6.20;94.40;;;;;;2073063;28;20042;-91
2021/11/03 03:57:10;;;;;;;13.80;7.55;;;6.10;94.30;;;;;;2072945;28;20088;-91
2021/11/03 03:58:10;;;;;;;10.60;7.18;;;6.20;94.30;;;;;;2057183;28;20389;-90
2021/11/03 03:59:11;;;;;;;12.95;7.10;;;6.20;94.30;;;;;;2044659;29;20054;-91
2021/11/03 04:00:15;;;;;;;13.88;7.28;;;6.20;94.30;;;;;;2058657;28;20389;-90
2021/11/03 04:01:19;;;;;;;13.18;7.28;;;6.20;94.30;;;;;;2076885;28;20061;-91
2021/11/03 04:02:20;;;;;;;10.52;7.25;;;6.20;94.30;;;;;;2084859;28;20047;-90
2021/11/03 04:03:21;;;;;;;9.82;7.32;;;6.20;94.20;;;;;;2064444;28;20034;-91
2021/11/03 04:04:21;;;;;;;10.63;7.10;;;6.10;94.20;;;;;;2073089;28;20038;-91
2021/11/03 04:05:23;;;;;;;14.10;7.60;;;6.10;94.20;;;;;;2083041;28;20140;-90
2021/11/03 04:06:24;;;;;;;10.35;7.57;;;6.20;94.20;;;;;;2082204;28;20049;-91
2021/11/03 04:07:24;;;;;;;13.07;7.53;;;6.20;94.50;;;;;;2070420;28;20037;-91
2021/11/03 04:08:25;;;;;;;17.98;7.22;;;6.20;94.20;;;;;;2055960;28;20039;-91
2021/11/03 04:09:26;;;;;;;11.15;8.02;;;6.10;94.20;;;;;;2067677;28;20537;-90
2021/11/03 04:10:27;;;;;;;21.27;7.63;;;6.10;94.20;;;;;;2073527;28;20085;-91
2021/11/03 04:11:27;;;;;;;14.65;7.13;;;6.10;94.20;;;;;;2073391;28;20116;-91
2021/11/03 04:12:28;;;;;;;11.15;7.60;;;6.10;94.20;;;;;;2064307;28;20129;-91
2021/11/03 04:13:29;;;;;;;14.15;8.05;;;6.10;94.20;;;;;;2056303;28;20045;-91
2021/11/03 04:14:30;;;;;;;12.27;7.30;;;6.10;94.20;;;;;;2073348;28;20495;-91
2021/11/03 04:15:31;;;;;;;9.68;8.05;;;6.10;94.30;;;;;;2065224;28;20081;-91
2021/11/03 04:16:31;;;;;;;9.35;7.95;;;6.10;94.30;;;;;;2055364;28;20062;-91
2021/11/03 04:17:32;;;;;;;15.00;7.53;;;6.10;94.30;;;;;;2072032;28;20455;-91
2021/11/03 04:18:33;;;;;;;22.45;7.25;;;6.10;94.30;;;;;;2086287;28;20042;-91
2021/11/03 04:19:33;;;;;;;14.35;7.22;;;6.10;94.30;;;;;;2077182;28;20033;-91
2021/11/03 04:20:34;;;;;;;14.10;6.60;;;6.10;94.30;;;;;;2076496;28;20046;-92
2021/11/03 04:21:35;;;;;;;18.98;7.10;;;6.10;94.30;;;;;;2074555;28;20041;-90
2021/11/03 04:22:36;;;;;;;15.80;6.50;;;6.10;94.30;;;;;;2082130;28;20037;-91
2021/11/03 04:23:37;;;;;;;13.13;7.47;;;6.00;94.20;;;;;;2074750;28;20042;-93
2021/11/03 04:24:37;;;;;;;12.70;7.00;;;6.00;94.30;;;;;;2074129;28;20060;-91
2021/11/03 04:25:39;;;;;;;14.50;6.70;;;6.10;94.30;;;;;;2068631;28;20566;-91
2021/11/03 04:26:47;;;;;;;13.95;6.30;;;6.00;94.30;;;;;;2074504;28;20612;-90
2021/11/03 04:27:48;;;;;;;11.77;6.90;;;6.00;94.30;;;;;;2074806;28;20100;-90
2021/11/03 04:28:49;;;;;;;9.30;6.90;;;6.00;94.30;;;;;;2067698;28;20081;-90
2021/11/03 04:29:50;;;;;;;11.70;6.95;;;6.00;94.30;;;;;;2082802;28;20036;-90
2021/11/03 04:30:51;;;;;;;13.38;6.82;;;6.00;94.30;;;;;;2085728;28;20068;-90
2021/11/03 04:31:52;;;;;;;12.43;6.70;;;6.00;94.30;;;;;;2066563;28;20041;-90
2021/11/03 04:32:52;;;;;;;13.93;6.93;;;6.00;94.30;;;;;;2066552;28;20034;-91
2021/11/03 04:33:53;;;;;;;11.02;6.88;;;6.00;94.30;;;;;;2077456;28;20041;-90
2021/11/03 04:34:54;;;;;;;9.57;7.30;;;6.00;94.30;;;;;;2066460;28;20568;-90
2021/11/03 04:35:55;;;;;;;13.52;7.10;;;6.00;94.30;;;;;;2074700;28;20039;-91
2021/11/03 04:36:55;;;;;;;8.32;6.75;;;6.00;94.30;;;;;;2074816;28;20038;-90
2021/11/03 04:37:56;;;;;;;16.92;7.60;;;6.00;94.30;;;;;;2074675;28;20068;-90
2021/11/03 04:38:59;;;;;;;13.70;6.88;;;6.00;94.30;;;;;;2083328;28;20034;-91
2021/11/03 04:40:00;;;;;;;12.60;6.80;;;6.00;94.30;;;;;;2074406;28;20516;-91
2021/11/03 04:41:01;;;;;;;11.38;7.47;;;6.00;94.30;;;;;;2082469;28;20060;-91
2021/11/03 04:42:02;;;;;;;14.18;7.07;;;6.00;94.40;;;;;;2066014;28;20038;-90
2021/11/03 04:43:02;;;;;;;10.85;6.88;;;6.00;94.30;;;;;;2066306;28;20042;-91
2021/11/03 04:44:03;;;;;;;9.27;6.63;;;6.00;94.30;;;;;;2057966;28;20035;-90
2021/11/03 04:45:06;;;;;;;12.77;7.25;;;6.00;94.30;;;;;;2057896;28;20041;-91
2021/11/03 04:46:07;;;;;;;10.85;7.30;;;6.00;94.30;;;;;;2075188;28;20046;-91
2021/11/03 04:47:08;;;;;;;9.75;7.22;;;6.00;94.30;;;;;;2086829;28;20399;-91
2021/11/03 04:48:09;;;;;;;15.50;6.93;;;6.00;94.30;;;;;;2082181;28;20069;-91
2021/11/03 04:49:09;;;;;;;11.35;7.20;;;6.00;94.30;;;;;;2074390;28;20038;-91
2021/11/03 04:50:15;;;;;;;11.52;6.72;;;6.00;94.20;;;;;;2074782;28;20590;-90
2021/11/03 04:51:16;;;;;;;10.27;7.22;;;6.10;94.30;;;;;;2083006;28;20385;-92
2021/11/03 04:52:17;;;;;;;11.18;7.53;;;6.00;94.20;;;;;;2082729;28;20041;-91
2021/11/03 04:53:17;;;;;;;14.60;7.60;;;6.10;94.30;;;;;;2075132;28;20052;-91
2021/11/03 04:54:18;;;;;;;10.93;7.35;;;6.10;94.30;;;;;;2077322;28;20124;-91
2021/11/03 04:55:19;;;;;;;12.13;7.45;;;6.10;94.20;;;;;;2082286;28;20041;-91
2021/11/03 04:56:20;;;;;;;12.98;7.05;;;6.10;94.20;;;;;;2073951;28;20119;-90
2021/11/03 04:57:21;;;;;;;12.70;7.47;;;6.10;94.20;;;;;;2074132;28;20444;-90
2021/11/03 04:58:21;;;;;;;12.35;7.38;;;6.00;94.20;;;;;;2082471;28;20079;-92
2021/11/03 04:59:23;;;;;;;12.63;7.32;;;6.00;94.20;;;;;;2073830;28;20522;-91
2021/11/03 05:00:27;;;;;;;9.23;6.78;;;6.00;94.30;;;;;;2058510;28;20042;-91
2021/11/03 05:01:28;;;;;;;12.32;7.53;;;6.00;94.30;;;;;;2072266;28;20034;-91
2021/11/03 05:02:28;;;;;;;14.88;6.90;;;6.00;94.30;;;;;;2082920;28;20029;-91
2021/11/03 05:03:29;;;;;;;10.10;7.00;;;6.00;94.30;;;;;;2078260;28;20038;-91
2021/11/03 05:04:30;;;;;;;12.75;7.20;;;6.00;94.30;;;;;;2075793;28;20120;-89
2021/11/03 05:05:31;;;;;;;10.40;7.35;;;6.00;94.30;;;;;;2079343;28;20074;-91
2021/11/03 05:06:34;;;;;;;16.52;7.60;;;6.00;94.30;;;;;;2082682;28;20041;-91
2021/11/03 05:07:35;;;;;;;12.23;7.28;;;6.00;94.30;;;;;;2089083;28;20037;-92
2021/11/03 05:08:35;;;;;;;8.77;7.18;;;6.00;94.30;;;;;;2074014;28;20053;-91
2021/11/03 05:09:36;;;;;;;8.70;6.97;;;6.00;94.30;;;;;;2057655;28;20564;-91
2021/11/03 05:10:37;;;;;;;11.68;7.47;;;6.00;94.30;;;;;;2066134;28;20043;-90
2021/11/03 05:11:38;;;;;;;11.60;7.13;;;6.00;94.30;;;;;;2064806;28;20211;-90
2021/11/03 05:12:38;;;;;;;12.55;7.40;;;6.00;94.20;;;;;;2058118;28;20074;-91
2021/11/03 05:13:39;;;;;;;8.38;7.00;;;6.10;94.20;;;;;;2065771;28;20038;-90
2021/11/03 05:14:40;;;;;;;12.57;7.28;;;6.00;94.20;;;;;;2057837;28;20042;-91
2021/11/03 05:15:40;;;;;;;12.55;7.20;;;6.00;94.20;;;;;;2065238;28;20034;-91
2021/11/03 05:16:41;;;;;;;9.57;6.95;;;6.00;94.20;;;;;;2065440;28;20050;-90
2021/11/03 05:17:42;;;;;;;11.27;7.15;;;6.00;94.10;;;;;;2049968;28;20138;-90
2021/11/03 05:18:42;;;;;;;11.48;7.30;;;6.00;94.10;;;;;;2061957;28;20062;-90
2021/11/03 05:19:43;;;;;;;20.77;7.50;;;6.00;94.20;;;;;;2065947;28;20072;-91
2021/11/03 05:20:44;;;;;;;18.42;7.05;;;6.00;94.20;;;;;;2064315;28;20042;-90
2021/11/03 05:21:46;;;;;;;12.85;7.90;;;6.00;94.10;;;;;;2064161;28;20050;-90
2021/11/03 05:22:48;;;;;;;13.98;6.70;;;6.00;94.10;;;;;;2061573;28;20049;-90